sensor_id;sensor_type;location;lat;lon;timestamp;P1;durP1;ratioP1;P2;durP2;ratioP2
14316;SDS011;7242;50.858;6.586;2022-08-05T00:00:45;3.37;;;2.10;;
14316;SDS011;7242;50.858;6.586;2022-08-05T00:03:47;4.87;;;2.10;;
14316;SDS011;7242;50.858;6.586;2022-08-05T00:06:48;3.97;;;2.00;;
14316;SDS011;7242;50.858;6.586;2022-08-05T00:09:49;2.87;;;1.90;;
14316;SDS011;7242;50.858;6.586;2022-08-05T00:12:49;5.53;;;1.90;;
14316;SDS011;7242;50.858;6.586;2022-08-05T00:15:50;3.67;;;2.07;;
14316;SDS011;7242;50.858;6.586;2022-08-05T00:18:51;3.30;;;2.10;;
14316;SDS011;7242;50.858;6.586;2022-08-05T00:21:51;5.97;;;2.60;;
14316;SDS011;7242;50.858;6.586;2022-08-05T00:24:52;3.80;;;2.10;;
14316;SDS011;7242;50.858;6.586;2022-08-05T00:27:53;3.97;;;2.27;;
14316;SDS011;7242;50.858;6.586;2022-08-05T00:30:54;5.20;;;2.33;;
14316;SDS011;7242;50.858;6.586;2022-08-05T00:33:55;3.50;;;2.10;;
14316;SDS011;7242;50.858;6.586;2022-08-05T00:36:56;4.90;;;2.33;;
14316;SDS011;7242;50.858;6.586;2022-08-05T00:39:56;6.23;;;2.50;;
14316;SDS011;7242;50.858;6.586;2022-08-05T00:42:58;4.80;;;2.50;;
14316;SDS011;7242;50.858;6.586;2022-08-05T00:46:01;3.63;;;2.30;;
14316;SDS011;7242;50.858;6.586;2022-08-05T00:49:02;4.20;;;2.30;;
14316;SDS011;7242;50.858;6.586;2022-08-05T00:52:03;4.43;;;2.10;;
14316;SDS011;7242;50.858;6.586;2022-08-05T00:55:05;3.87;;;2.30;;
14316;SDS011;7242;50.858;6.586;2022-08-05T00:58:05;4.93;;;2.50;;
14316;SDS011;7242;50.858;6.586;2022-08-05T01:01:07;6.53;;;2.80;;
14316;SDS011;7242;50.858;6.586;2022-08-05T01:04:09;3.70;;;2.27;;
14316;SDS011;7242;50.858;6.586;2022-08-05T01:07:10;5.03;;;2.47;;
14316;SDS011;7242;50.858;6.586;2022-08-05T01:10:12;5.70;;;2.70;;
14316;SDS011;7242;50.858;6.586;2022-08-05T01:13:35;4.13;;;2.03;;
14316;SDS011;7242;50.858;6.586;2022-08-05T01:16:47;3.73;;;2.63;;
14316;SDS011;7242;50.858;6.586;2022-08-05T01:29:49;5.37;;;2.63;;
14316;SDS011;7242;50.858;6.586;2022-08-05T01:32:55;5.00;;;2.47;;
14316;SDS011;7242;50.858;6.586;2022-08-05T01:35:59;3.77;;;2.43;;
14316;SDS011;7242;50.858;6.586;2022-08-05T01:39:04;3.97;;;2.60;;
14316;SDS011;7242;50.858;6.586;2022-08-05T01:42:05;4.20;;;2.70;;
14316;SDS011;7242;50.858;6.586;2022-08-05T01:45:08;4.43;;;2.43;;
14316;SDS011;7242;50.858;6.586;2022-08-05T01:48:11;3.77;;;2.80;;
14316;SDS011;7242;50.858;6.586;2022-08-05T01:51:13;5.33;;;2.90;;
14316;SDS011;7242;50.858;6.586;2022-08-05T01:54:17;5.63;;;2.93;;
14316;SDS011;7242;50.858;6.586;2022-08-05T01:57:23;3.97;;;2.87;;
14316;SDS011;7242;50.858;6.586;2022-08-05T02:00:30;3.83;;;2.60;;
14316;SDS011;7242;50.858;6.586;2022-08-05T02:03:35;7.47;;;3.60;;
14316;SDS011;7242;50.858;6.586;2022-08-05T02:06:38;7.37;;;3.70;;
14316;SDS011;7242;50.858;6.586;2022-08-05T02:09:40;7.07;;;3.50;;
14316;SDS011;7242;50.858;6.586;2022-08-05T02:12:51;4.43;;;3.10;;
14316;SDS011;7242;50.858;6.586;2022-08-05T02:16:14;9.80;;;3.87;;
14316;SDS011;7242;50.858;6.586;2022-08-05T02:19:34;7.43;;;3.73;;
14316;SDS011;7242;50.858;6.586;2022-08-05T02:22:38;8.43;;;3.77;;
14316;SDS011;7242;50.858;6.586;2022-08-05T02:25:44;6.33;;;3.70;;
14316;SDS011;7242;50.858;6.586;2022-08-05T02:28:45;6.97;;;4.03;;
14316;SDS011;7242;50.858;6.586;2022-08-05T02:36:11;8.10;;;5.43;;
14316;SDS011;7242;50.858;6.586;2022-08-05T02:39:16;7.73;;;5.60;;
14316;SDS011;7242;50.858;6.586;2022-08-05T02:42:18;8.10;;;6.30;;
14316;SDS011;7242;50.858;6.586;2022-08-05T02:45:20;7.17;;;6.33;;
14316;SDS011;7242;50.858;6.586;2022-08-05T02:48:22;7.10;;;6.40;;
14316;SDS011;7242;50.858;6.586;2022-08-05T02:51:25;8.47;;;6.50;;
14316;SDS011;7242;50.858;6.586;2022-08-05T02:54:26;7.40;;;6.07;;
14316;SDS011;7242;50.858;6.586;2022-08-05T02:57:28;6.03;;;4.80;;
14316;SDS011;7242;50.858;6.586;2022-08-05T03:00:30;7.30;;;6.60;;
14316;SDS011;7242;50.858;6.586;2022-08-05T03:03:33;6.33;;;5.73;;
14316;SDS011;7242;50.858;6.586;2022-08-05T03:06:40;6.93;;;6.27;;
14316;SDS011;7242;50.858;6.586;2022-08-05T03:09:41;6.83;;;6.13;;
14316;SDS011;7242;50.858;6.586;2022-08-05T03:12:44;9.07;;;8.17;;
14316;SDS011;7242;50.858;6.586;2022-08-05T03:15:45;10.00;;;9.10;;
14316;SDS011;7242;50.858;6.586;2022-08-05T03:18:47;10.53;;;9.60;;
14316;SDS011;7242;50.858;6.586;2022-08-05T03:21:48;10.40;;;9.37;;
14316;SDS011;7242;50.858;6.586;2022-08-05T03:24:50;10.13;;;9.30;;
14316;SDS011;7242;50.858;6.586;2022-08-05T03:27:51;9.10;;;8.37;;
14316;SDS011;7242;50.858;6.586;2022-08-05T03:30:55;9.60;;;8.70;;
14316;SDS011;7242;50.858;6.586;2022-08-05T03:33:57;9.97;;;9.07;;
14316;SDS011;7242;50.858;6.586;2022-08-05T03:36:58;10.13;;;9.23;;
14316;SDS011;7242;50.858;6.586;2022-08-05T03:39:59;10.17;;;9.27;;
14316;SDS011;7242;50.858;6.586;2022-08-05T03:43:01;9.67;;;8.87;;
14316;SDS011;7242;50.858;6.586;2022-08-05T03:46:02;11.57;;;10.40;;
14316;SDS011;7242;50.858;6.586;2022-08-05T03:49:04;13.17;;;11.97;;
14316;SDS011;7242;50.858;6.586;2022-08-05T03:52:08;14.53;;;13.10;;
14316;SDS011;7242;50.858;6.586;2022-08-05T03:55:13;15.70;;;14.30;;
14316;SDS011;7242;50.858;6.586;2022-08-05T03:58:18;15.90;;;14.40;;
14316;SDS011;7242;50.858;6.586;2022-08-05T04:01:22;16.57;;;15.07;;
14316;SDS011;7242;50.858;6.586;2022-08-05T04:04:24;16.87;;;15.27;;
14316;SDS011;7242;50.858;6.586;2022-08-05T04:07:27;17.33;;;15.83;;
14316;SDS011;7242;50.858;6.586;2022-08-05T04:10:28;15.10;;;13.70;;
14316;SDS011;7242;50.858;6.586;2022-08-05T04:13:29;14.03;;;12.70;;
14316;SDS011;7242;50.858;6.586;2022-08-05T04:16:30;13.67;;;12.47;;
14316;SDS011;7242;50.858;6.586;2022-08-05T04:19:44;12.10;;;10.97;;
14316;SDS011;7242;50.858;6.586;2022-08-05T04:22:47;12.73;;;11.53;;
14316;SDS011;7242;50.858;6.586;2022-08-05T04:25:48;12.27;;;11.07;;
14316;SDS011;7242;50.858;6.586;2022-08-05T04:28:49;12.07;;;10.97;;
14316;SDS011;7242;50.858;6.586;2022-08-05T04:31:50;9.87;;;8.97;;
14316;SDS011;7242;50.858;6.586;2022-08-05T04:34:50;9.67;;;8.83;;
14316;SDS011;7242;50.858;6.586;2022-08-05T04:37:51;13.97;;;12.63;;
14316;SDS011;7242;50.858;6.586;2022-08-05T04:40:52;12.40;;;11.30;;
14316;SDS011;7242;50.858;6.586;2022-08-05T04:43:53;11.97;;;10.97;;
14316;SDS011;7242;50.858;6.586;2022-08-05T04:46:54;11.30;;;10.20;;
14316;SDS011;7242;50.858;6.586;2022-08-05T04:49:54;13.87;;;12.67;;
14316;SDS011;7242;50.858;6.586;2022-08-05T04:52:55;11.50;;;10.50;;
14316;SDS011;7242;50.858;6.586;2022-08-05T04:55:56;11.43;;;10.43;;
14316;SDS011;7242;50.858;6.586;2022-08-05T04:58:57;14.33;;;10.57;;
14316;SDS011;7242;50.858;6.586;2022-08-05T05:01:58;11.83;;;10.67;;
14316;SDS011;7242;50.858;6.586;2022-08-05T05:04:59;11.60;;;10.50;;
14316;SDS011;7242;50.858;6.586;2022-08-05T05:08:01;13.20;;;11.90;;
14316;SDS011;7242;50.858;6.586;2022-08-05T05:11:04;11.83;;;10.73;;
14316;SDS011;7242;50.858;6.586;2022-08-05T05:14:05;10.83;;;9.93;;
14316;SDS011;7242;50.858;6.586;2022-08-05T05:17:06;11.93;;;10.83;;
14316;SDS011;7242;50.858;6.586;2022-08-05T05:20:07;12.63;;;11.43;;
14316;SDS011;7242;50.858;6.586;2022-08-05T05:23:10;13.77;;;12.43;;
14316;SDS011;7242;50.858;6.586;2022-08-05T05:26:11;15.47;;;13.87;;
14316;SDS011;7242;50.858;6.586;2022-08-05T05:29:12;14.07;;;12.73;;
14316;SDS011;7242;50.858;6.586;2022-08-05T05:32:13;14.23;;;12.87;;
14316;SDS011;7242;50.858;6.586;2022-08-05T05:35:14;15.40;;;13.80;;
14316;SDS011;7242;50.858;6.586;2022-08-05T05:38:16;15.43;;;13.93;;
14316;SDS011;7242;50.858;6.586;2022-08-05T05:41:17;14.27;;;12.73;;
14316;SDS011;7242;50.858;6.586;2022-08-05T05:44:18;16.43;;;14.93;;
14316;SDS011;7242;50.858;6.586;2022-08-05T05:47:19;15.30;;;13.80;;
14316;SDS011;7242;50.858;6.586;2022-08-05T05:50:19;18.03;;;15.30;;
14316;SDS011;7242;50.858;6.586;2022-08-05T05:53:21;17.00;;;15.30;;
14316;SDS011;7242;50.858;6.586;2022-08-05T05:56:21;16.40;;;14.80;;
14316;SDS011;7242;50.858;6.586;2022-08-05T05:59:23;18.20;;;16.33;;
14316;SDS011;7242;50.858;6.586;2022-08-05T06:02:23;18.30;;;16.53;;
14316;SDS011;7242;50.858;6.586;2022-08-05T06:05:24;20.77;;;18.67;;
14316;SDS011;7242;50.858;6.586;2022-08-05T06:08:25;21.77;;;19.47;;
14316;SDS011;7242;50.858;6.586;2022-08-05T06:11:26;25.40;;;21.90;;
14316;SDS011;7242;50.858;6.586;2022-08-05T06:14:28;20.37;;;18.37;;
14316;SDS011;7242;50.858;6.586;2022-08-05T06:17:29;22.57;;;20.17;;
14316;SDS011;7242;50.858;6.586;2022-08-05T06:20:30;22.43;;;20.33;;
14316;SDS011;7242;50.858;6.586;2022-08-05T06:23:32;24.10;;;21.63;;
14316;SDS011;7242;50.858;6.586;2022-08-05T06:26:32;25.37;;;22.87;;
14316;SDS011;7242;50.858;6.586;2022-08-05T06:29:33;24.90;;;22.40;;
14316;SDS011;7242;50.858;6.586;2022-08-05T06:32:35;25.97;;;23.37;;
14316;SDS011;7242;50.858;6.586;2022-08-05T06:35:36;29.87;;;26.37;;
14316;SDS011;7242;50.858;6.586;2022-08-05T06:38:37;28.67;;;25.10;;
14316;SDS011;7242;50.858;6.586;2022-08-05T06:41:38;28.47;;;25.00;;
14316;SDS011;7242;50.858;6.586;2022-08-05T06:44:39;28.00;;;24.70;;
14316;SDS011;7242;50.858;6.586;2022-08-05T06:47:40;27.93;;;24.73;;
14316;SDS011;7242;50.858;6.586;2022-08-05T06:50:41;26.93;;;24.13;;
14316;SDS011;7242;50.858;6.586;2022-08-05T06:53:42;35.53;;;26.67;;
14316;SDS011;7242;50.858;6.586;2022-08-05T06:56:43;27.73;;;24.73;;
14316;SDS011;7242;50.858;6.586;2022-08-05T06:59:44;30.53;;;27.27;;
14316;SDS011;7242;50.858;6.586;2022-08-05T07:02:45;28.27;;;23.20;;
14316;SDS011;7242;50.858;6.586;2022-08-05T07:05:46;27.23;;;23.60;;
14316;SDS011;7242;50.858;6.586;2022-08-05T07:08:47;30.97;;;25.20;;
14316;SDS011;7242;50.858;6.586;2022-08-05T07:11:48;28.20;;;25.07;;
14316;SDS011;7242;50.858;6.586;2022-08-05T07:14:48;29.60;;;26.27;;
14316;SDS011;7242;50.858;6.586;2022-08-05T07:18:19;30.37;;;26.30;;
14316;SDS011;7242;50.858;6.586;2022-08-05T07:21:20;35.60;;;30.37;;
14316;SDS011;7242;50.858;6.586;2022-08-05T07:24:21;40.37;;;34.73;;
14316;SDS011;7242;50.858;6.586;2022-08-05T07:27:23;47.20;;;39.90;;
14316;SDS011;7242;50.858;6.586;2022-08-05T07:30:23;48.70;;;40.57;;
14316;SDS011;7242;50.858;6.586;2022-08-05T07:33:24;49.43;;;40.77;;
14316;SDS011;7242;50.858;6.586;2022-08-05T07:36:25;53.80;;;42.63;;
14316;SDS011;7242;50.858;6.586;2022-08-05T07:39:26;55.30;;;42.73;;
14316;SDS011;7242;50.858;6.586;2022-08-05T07:42:27;49.40;;;41.13;;
14316;SDS011;7242;50.858;6.586;2022-08-05T07:45:28;48.07;;;39.77;;
14316;SDS011;7242;50.858;6.586;2022-08-05T07:48:29;34.37;;;29.30;;
14316;SDS011;7242;50.858;6.586;2022-08-05T07:51:30;24.67;;;21.97;;
14316;SDS011;7242;50.858;6.586;2022-08-05T07:54:32;17.97;;;15.47;;
14316;SDS011;7242;50.858;6.586;2022-08-05T07:57:34;18.60;;;15.97;;
14316;SDS011;7242;50.858;6.586;2022-08-05T08:00:35;15.50;;;12.53;;
14316;SDS011;7242;50.858;6.586;2022-08-05T08:03:35;14.57;;;13.00;;
14316;SDS011;7242;50.858;6.586;2022-08-05T08:06:36;12.73;;;11.03;;
14316;SDS011;7242;50.858;6.586;2022-08-05T08:09:37;14.10;;;11.80;;
14316;SDS011;7242;50.858;6.586;2022-08-05T08:12:38;13.43;;;12.03;;
14316;SDS011;7242;50.858;6.586;2022-08-05T08:15:39;14.33;;;12.93;;
14316;SDS011;7242;50.858;6.586;2022-08-05T08:18:40;14.17;;;12.80;;
14316;SDS011;7242;50.858;6.586;2022-08-05T08:21:41;15.23;;;13.57;;
14316;SDS011;7242;50.858;6.586;2022-08-05T08:24:42;14.57;;;11.57;;
14316;SDS011;7242;50.858;6.586;2022-08-05T08:27:43;14.63;;;11.83;;
14316;SDS011;7242;50.858;6.586;2022-08-05T08:30:44;14.57;;;10.90;;
14316;SDS011;7242;50.858;6.586;2022-08-05T08:33:45;12.63;;;11.43;;
14316;SDS011;7242;50.858;6.586;2022-08-05T08:36:46;15.50;;;12.27;;
14316;SDS011;7242;50.858;6.586;2022-08-05T08:39:47;12.67;;;11.47;;
14316;SDS011;7242;50.858;6.586;2022-08-05T08:42:49;13.20;;;11.87;;
14316;SDS011;7242;50.858;6.586;2022-08-05T08:45:52;15.67;;;12.37;;
14316;SDS011;7242;50.858;6.586;2022-08-05T08:48:54;13.60;;;11.70;;
14316;SDS011;7242;50.858;6.586;2022-08-05T08:52:07;12.60;;;11.37;;
14316;SDS011;7242;50.858;6.586;2022-08-05T08:55:12;11.23;;;9.53;;
14316;SDS011;7242;50.858;6.586;2022-08-05T08:58:14;12.80;;;10.00;;
14316;SDS011;7242;50.858;6.586;2022-08-05T09:01:16;13.87;;;10.87;;
14316;SDS011;7242;50.858;6.586;2022-08-05T09:04:17;14.93;;;12.23;;
14316;SDS011;7242;50.858;6.586;2022-08-05T09:07:18;15.33;;;12.63;;
14316;SDS011;7242;50.858;6.586;2022-08-05T09:10:19;17.10;;;15.17;;
14316;SDS011;7242;50.858;6.586;2022-08-05T09:13:21;15.57;;;14.07;;
14316;SDS011;7242;50.858;6.586;2022-08-05T09:16:22;17.27;;;15.30;;
14316;SDS011;7242;50.858;6.586;2022-08-05T09:19:23;18.97;;;15.77;;
14316;SDS011;7242;50.858;6.586;2022-08-05T09:22:24;13.97;;;12.43;;
14316;SDS011;7242;50.858;6.586;2022-08-05T09:25:25;15.13;;;11.53;;
14316;SDS011;7242;50.858;6.586;2022-08-05T09:28:26;15.37;;;11.07;;
14316;SDS011;7242;50.858;6.586;2022-08-05T09:31:27;13.10;;;10.20;;
14316;SDS011;7242;50.858;6.586;2022-08-05T09:34:44;11.37;;;9.67;;
14316;SDS011;7242;50.858;6.586;2022-08-05T09:37:49;12.27;;;10.00;;
14316;SDS011;7242;50.858;6.586;2022-08-05T09:40:51;13.07;;;9.90;;
14316;SDS011;7242;50.858;6.586;2022-08-05T09:43:53;12.13;;;8.00;;
14316;SDS011;7242;50.858;6.586;2022-08-05T09:47:02;9.20;;;8.20;;
14316;SDS011;7242;50.858;6.586;2022-08-05T09:50:18;8.20;;;7.40;;
14316;SDS011;7242;50.858;6.586;2022-08-05T09:53:19;10.77;;;8.23;;
14316;SDS011;7242;50.858;6.586;2022-08-05T09:56:25;9.63;;;7.90;;
14316;SDS011;7242;50.858;6.586;2022-08-05T09:59:33;10.67;;;7.93;;
14316;SDS011;7242;50.858;6.586;2022-08-05T10:02:34;11.13;;;8.53;;
14316;SDS011;7242;50.858;6.586;2022-08-05T10:05:37;11.10;;;8.50;;
14316;SDS011;7242;50.858;6.586;2022-08-05T10:08:40;10.17;;;6.70;;
14316;SDS011;7242;50.858;6.586;2022-08-05T10:11:42;11.23;;;6.87;;
14316;SDS011;7242;50.858;6.586;2022-08-05T10:14:44;12.13;;;7.00;;
14316;SDS011;7242;50.858;6.586;2022-08-05T10:18:01;9.33;;;5.63;;
14316;SDS011;7242;50.858;6.586;2022-08-05T10:21:03;7.87;;;5.90;;
14316;SDS011;7242;50.858;6.586;2022-08-05T10:24:05;8.90;;;6.03;;
14316;SDS011;7242;50.858;6.586;2022-08-05T10:27:12;8.97;;;4.97;;
14316;SDS011;7242;50.858;6.586;2022-08-05T10:30:14;7.53;;;5.27;;
14316;SDS011;7242;50.858;6.586;2022-08-05T10:33:15;12.10;;;5.50;;
14316;SDS011;7242;50.858;6.586;2022-08-05T10:36:17;8.97;;;5.40;;
14316;SDS011;7242;50.858;6.586;2022-08-05T10:39:20;8.60;;;5.20;;
14316;SDS011;7242;50.858;6.586;2022-08-05T10:42:24;11.60;;;5.50;;
14316;SDS011;7242;50.858;6.586;2022-08-05T10:45:28;9.37;;;5.00;;
14316;SDS011;7242;50.858;6.586;2022-08-05T10:51:40;7.50;;;4.90;;
14316;SDS011;7242;50.858;6.586;2022-08-05T10:55:08;7.97;;;4.23;;
14316;SDS011;7242;50.858;6.586;2022-08-05T10:58:09;9.17;;;4.57;;
14316;SDS011;7242;50.858;6.586;2022-08-05T11:01:10;7.20;;;4.60;;
14316;SDS011;7242;50.858;6.586;2022-08-05T11:04:21;7.77;;;4.20;;
14316;SDS011;7242;50.858;6.586;2022-08-05T11:07:22;6.37;;;4.00;;
14316;SDS011;7242;50.858;6.586;2022-08-05T11:10:24;6.77;;;3.60;;
14316;SDS011;7242;50.858;6.586;2022-08-05T11:13:42;4.43;;;3.30;;
14316;SDS011;7242;50.858;6.586;2022-08-05T11:16:43;6.00;;;3.23;;
14316;SDS011;7242;50.858;6.586;2022-08-05T11:19:44;6.63;;;3.17;;
14316;SDS011;7242;50.858;6.586;2022-08-05T11:22:46;4.40;;;2.83;;
14316;SDS011;7242;50.858;6.586;2022-08-05T11:29:04;5.20;;;2.80;;
14316;SDS011;7242;50.858;6.586;2022-08-05T11:32:25;4.90;;;2.17;;
14316;SDS011;7242;50.858;6.586;2022-08-05T11:38:52;3.97;;;2.40;;
14316;SDS011;7242;50.858;6.586;2022-08-05T11:41:54;4.27;;;2.37;;
14316;SDS011;7242;50.858;6.586;2022-08-05T11:45:00;5.30;;;2.60;;
14316;SDS011;7242;50.858;6.586;2022-08-05T11:48:06;5.30;;;2.80;;
14316;SDS011;7242;50.858;6.586;2022-08-05T11:51:08;4.50;;;2.47;;
14316;SDS011;7242;50.858;6.586;2022-08-05T11:54:10;5.37;;;2.40;;
14316;SDS011;7242;50.858;6.586;2022-08-05T11:57:11;4.00;;;2.20;;
14316;SDS011;7242;50.858;6.586;2022-08-05T12:00:28;4.70;;;2.07;;
14316;SDS011;7242;50.858;6.586;2022-08-05T12:03:39;5.27;;;2.13;;
14316;SDS011;7242;50.858;6.586;2022-08-05T12:06:44;3.67;;;2.00;;
14316;SDS011;7242;50.858;6.586;2022-08-05T12:09:46;4.93;;;2.37;;
14316;SDS011;7242;50.858;6.586;2022-08-05T12:12:50;5.53;;;2.40;;
14316;SDS011;7242;50.858;6.586;2022-08-05T12:15:52;3.97;;;2.10;;
14316;SDS011;7242;50.858;6.586;2022-08-05T12:18:52;5.33;;;1.90;;
14316;SDS011;7242;50.858;6.586;2022-08-05T12:21:54;3.83;;;2.20;;
14316;SDS011;7242;50.858;6.586;2022-08-05T12:24:56;4.60;;;2.20;;
14316;SDS011;7242;50.858;6.586;2022-08-05T12:27:57;4.00;;;2.40;;
14316;SDS011;7242;50.858;6.586;2022-08-05T12:30:58;4.00;;;2.00;;
14316;SDS011;7242;50.858;6.586;2022-08-05T12:34:00;3.83;;;2.27;;
14316;SDS011;7242;50.858;6.586;2022-08-05T12:37:05;6.50;;;2.30;;
14316;SDS011;7242;50.858;6.586;2022-08-05T12:40:10;4.27;;;2.30;;
14316;SDS011;7242;50.858;6.586;2022-08-05T12:43:11;5.53;;;2.40;;
14316;SDS011;7242;50.858;6.586;2022-08-05T12:46:18;4.83;;;2.43;;
14316;SDS011;7242;50.858;6.586;2022-08-05T12:49:24;2.93;;;2.10;;
14316;SDS011;7242;50.858;6.586;2022-08-05T12:52:25;4.80;;;2.90;;
14316;SDS011;7242;50.858;6.586;2022-08-05T12:55:27;5.80;;;2.50;;
14316;SDS011;7242;50.858;6.586;2022-08-05T12:58:30;4.47;;;2.53;;
14316;SDS011;7242;50.858;6.586;2022-08-05T13:01:30;4.47;;;2.13;;
14316;SDS011;7242;50.858;6.586;2022-08-05T13:04:32;4.37;;;2.20;;
14316;SDS011;7242;50.858;6.586;2022-08-05T13:07:34;4.00;;;2.37;;
14316;SDS011;7242;50.858;6.586;2022-08-05T13:10:41;6.73;;;2.53;;
14316;SDS011;7242;50.858;6.586;2022-08-05T13:13:42;3.37;;;1.70;;
14316;SDS011;7242;50.858;6.586;2022-08-05T13:16:46;3.97;;;2.13;;
14316;SDS011;7242;50.858;6.586;2022-08-05T13:23:04;3.70;;;2.10;;
14316;SDS011;7242;50.858;6.586;2022-08-05T13:26:05;3.57;;;1.80;;
14316;SDS011;7242;50.858;6.586;2022-08-05T13:29:06;4.77;;;1.87;;
14316;SDS011;7242;50.858;6.586;2022-08-05T13:32:07;4.07;;;1.87;;
14316;SDS011;7242;50.858;6.586;2022-08-05T13:35:08;4.20;;;2.00;;
14316;SDS011;7242;50.858;6.586;2022-08-05T13:38:09;5.77;;;2.20;;
14316;SDS011;7242;50.858;6.586;2022-08-05T13:41:09;3.27;;;1.90;;
14316;SDS011;7242;50.858;6.586;2022-08-05T13:44:11;4.90;;;2.20;;
14316;SDS011;7242;50.858;6.586;2022-08-05T13:47:12;4.50;;;2.00;;
14316;SDS011;7242;50.858;6.586;2022-08-05T13:50:13;5.47;;;2.13;;
14316;SDS011;7242;50.858;6.586;2022-08-05T13:53:14;3.23;;;1.70;;
14316;SDS011;7242;50.858;6.586;2022-08-05T13:56:15;4.73;;;2.10;;
14316;SDS011;7242;50.858;6.586;2022-08-05T13:59:15;3.47;;;1.37;;
14316;SDS011;7242;50.858;6.586;2022-08-05T14:02:16;1.83;;;1.00;;
14316;SDS011;7242;50.858;6.586;2022-08-05T14:05:17;3.40;;;1.20;;
14316;SDS011;7242;50.858;6.586;2022-08-05T14:08:19;1.40;;;1.07;;
14316;SDS011;7242;50.858;6.586;2022-08-05T14:11:20;2.90;;;1.23;;
14316;SDS011;7242;50.858;6.586;2022-08-05T14:14:21;3.23;;;1.20;;
14316;SDS011;7242;50.858;6.586;2022-08-05T14:17:21;3.17;;;1.60;;
14316;SDS011;7242;50.858;6.586;2022-08-05T14:20:25;3.60;;;1.53;;
14316;SDS011;7242;50.858;6.586;2022-08-05T14:23:27;5.40;;;1.77;;
14316;SDS011;7242;50.858;6.586;2022-08-05T14:26:28;4.77;;;2.03;;
14316;SDS011;7242;50.858;6.586;2022-08-05T14:29:29;4.60;;;1.73;;
14316;SDS011;7242;50.858;6.586;2022-08-05T14:32:30;4.57;;;1.30;;
14316;SDS011;7242;50.858;6.586;2022-08-05T14:35:31;2.03;;;1.17;;
14316;SDS011;7242;50.858;6.586;2022-08-05T14:38:32;3.33;;;1.13;;
14316;SDS011;7242;50.858;6.586;2022-08-05T14:41:33;3.70;;;1.10;;
14316;SDS011;7242;50.858;6.586;2022-08-05T14:44:34;3.50;;;1.20;;
14316;SDS011;7242;50.858;6.586;2022-08-05T14:47:35;2.60;;;1.17;;
14316;SDS011;7242;50.858;6.586;2022-08-05T14:50:36;0.97;;;0.80;;
14316;SDS011;7242;50.858;6.586;2022-08-05T14:53:37;3.83;;;1.07;;
14316;SDS011;7242;50.858;6.586;2022-08-05T14:56:38;2.70;;;0.90;;
14316;SDS011;7242;50.858;6.586;2022-08-05T14:59:39;2.63;;;1.00;;
14316;SDS011;7242;50.858;6.586;2022-08-05T15:02:39;3.20;;;1.10;;
14316;SDS011;7242;50.858;6.586;2022-08-05T15:05:41;3.57;;;0.87;;
14316;SDS011;7242;50.858;6.586;2022-08-05T15:08:42;2.80;;;1.30;;
14316;SDS011;7242;50.858;6.586;2022-08-05T15:11:43;2.23;;;1.00;;
14316;SDS011;7242;50.858;6.586;2022-08-05T15:14:44;3.17;;;1.30;;
14316;SDS011;7242;50.858;6.586;2022-08-05T15:17:45;2.97;;;1.27;;
14316;SDS011;7242;50.858;6.586;2022-08-05T15:20:46;4.13;;;1.37;;
14316;SDS011;7242;50.858;6.586;2022-08-05T15:23:47;3.60;;;1.30;;
14316;SDS011;7242;50.858;6.586;2022-08-05T15:26:49;2.40;;;1.10;;
14316;SDS011;7242;50.858;6.586;2022-08-05T15:29:50;2.80;;;1.50;;
14316;SDS011;7242;50.858;6.586;2022-08-05T15:32:51;4.50;;;1.40;;
14316;SDS011;7242;50.858;6.586;2022-08-05T15:35:54;3.40;;;1.30;;
14316;SDS011;7242;50.858;6.586;2022-08-05T15:38:55;4.10;;;1.63;;
14316;SDS011;7242;50.858;6.586;2022-08-05T15:41:55;2.63;;;1.20;;
14316;SDS011;7242;50.858;6.586;2022-08-05T15:44:56;3.03;;;1.33;;
14316;SDS011;7242;50.858;6.586;2022-08-05T15:47:57;3.77;;;1.40;;
14316;SDS011;7242;50.858;6.586;2022-08-05T15:50:57;1.90;;;1.10;;
14316;SDS011;7242;50.858;6.586;2022-08-05T15:53:59;1.77;;;1.40;;
14316;SDS011;7242;50.858;6.586;2022-08-05T15:57:00;3.60;;;1.30;;
14316;SDS011;7242;50.858;6.586;2022-08-05T16:00:02;2.33;;;1.40;;
14316;SDS011;7242;50.858;6.586;2022-08-05T16:03:04;4.17;;;1.30;;
14316;SDS011;7242;50.858;6.586;2022-08-05T16:06:05;2.47;;;1.10;;
14316;SDS011;7242;50.858;6.586;2022-08-05T16:09:06;2.57;;;1.40;;
14316;SDS011;7242;50.858;6.586;2022-08-05T16:12:07;2.37;;;1.10;;
14316;SDS011;7242;50.858;6.586;2022-08-05T16:15:08;3.43;;;1.10;;
14316;SDS011;7242;50.858;6.586;2022-08-05T16:18:09;3.37;;;1.20;;
14316;SDS011;7242;50.858;6.586;2022-08-05T16:21:11;1.97;;;0.97;;
14316;SDS011;7242;50.858;6.586;2022-08-05T16:24:12;2.10;;;0.90;;
14316;SDS011;7242;50.858;6.586;2022-08-05T16:27:13;1.80;;;1.00;;
14316;SDS011;7242;50.858;6.586;2022-08-05T16:30:14;3.70;;;1.13;;
14316;SDS011;7242;50.858;6.586;2022-08-05T16:33:15;3.27;;;0.80;;
14316;SDS011;7242;50.858;6.586;2022-08-05T16:36:16;0.97;;;0.70;;
14316;SDS011;7242;50.858;6.586;2022-08-05T16:39:18;1.00;;;0.80;;
14316;SDS011;7242;50.858;6.586;2022-08-05T16:42:19;1.23;;;0.63;;
14316;SDS011;7242;50.858;6.586;2022-08-05T16:45:20;1.90;;;0.63;;
14316;SDS011;7242;50.858;6.586;2022-08-05T16:48:23;3.00;;;1.03;;
14316;SDS011;7242;50.858;6.586;2022-08-05T16:51:24;1.03;;;0.80;;
14316;SDS011;7242;50.858;6.586;2022-08-05T16:54:25;2.30;;;0.80;;
14316;SDS011;7242;50.858;6.586;2022-08-05T16:57:26;2.20;;;0.70;;
14316;SDS011;7242;50.858;6.586;2022-08-05T17:00:28;2.13;;;0.77;;
14316;SDS011;7242;50.858;6.586;2022-08-05T17:03:29;2.17;;;0.70;;
14316;SDS011;7242;50.858;6.586;2022-08-05T17:06:30;2.60;;;0.90;;
14316;SDS011;7242;50.858;6.586;2022-08-05T17:09:31;2.87;;;0.83;;
14316;SDS011;7242;50.858;6.586;2022-08-05T17:12:32;3.07;;;0.77;;
14316;SDS011;7242;50.858;6.586;2022-08-05T17:15:33;3.50;;;0.83;;
14316;SDS011;7242;50.858;6.586;2022-08-05T17:18:35;2.50;;;0.70;;
14316;SDS011;7242;50.858;6.586;2022-08-05T17:21:36;2.77;;;0.60;;
14316;SDS011;7242;50.858;6.586;2022-08-05T17:24:37;3.37;;;0.90;;
14316;SDS011;7242;50.858;6.586;2022-08-05T17:27:37;3.03;;;0.83;;
14316;SDS011;7242;50.858;6.586;2022-08-05T17:30:38;5.30;;;1.00;;
14316;SDS011;7242;50.858;6.586;2022-08-05T17:33:40;1.97;;;0.60;;
14316;SDS011;7242;50.858;6.586;2022-08-05T17:36:41;2.47;;;0.60;;
14316;SDS011;7242;50.858;6.586;2022-08-05T17:39:42;1.47;;;0.77;;
14316;SDS011;7242;50.858;6.586;2022-08-05T17:42:43;1.93;;;0.50;;
14316;SDS011;7242;50.858;6.586;2022-08-05T17:45:45;2.43;;;0.50;;
14316;SDS011;7242;50.858;6.586;2022-08-05T17:48:46;1.87;;;0.60;;
14316;SDS011;7242;50.858;6.586;2022-08-05T17:51:47;5.80;;;1.00;;
14316;SDS011;7242;50.858;6.586;2022-08-05T17:54:48;2.60;;;0.50;;
14316;SDS011;7242;50.858;6.586;2022-08-05T17:57:48;2.80;;;0.70;;
14316;SDS011;7242;50.858;6.586;2022-08-05T18:00:50;2.53;;;0.80;;
14316;SDS011;7242;50.858;6.586;2022-08-05T18:03:50;3.17;;;0.53;;
14316;SDS011;7242;50.858;6.586;2022-08-05T18:06:51;1.67;;;0.70;;
14316;SDS011;7242;50.858;6.586;2022-08-05T18:09:52;2.60;;;0.63;;
14316;SDS011;7242;50.858;6.586;2022-08-05T18:12:53;2.37;;;0.60;;
14316;SDS011;7242;50.858;6.586;2022-08-05T18:15:54;3.63;;;0.60;;
14316;SDS011;7242;50.858;6.586;2022-08-05T18:18:55;3.50;;;0.70;;
14316;SDS011;7242;50.858;6.586;2022-08-05T18:21:56;1.83;;;0.60;;
14316;SDS011;7242;50.858;6.586;2022-08-05T18:24:57;3.33;;;0.60;;
14316;SDS011;7242;50.858;6.586;2022-08-05T18:27:59;2.03;;;0.57;;
14316;SDS011;7242;50.858;6.586;2022-08-05T18:30:59;2.53;;;0.50;;
14316;SDS011;7242;50.858;6.586;2022-08-05T18:34:01;2.80;;;0.60;;
14316;SDS011;7242;50.858;6.586;2022-08-05T18:37:02;2.33;;;0.60;;
14316;SDS011;7242;50.858;6.586;2022-08-05T18:40:03;1.33;;;0.67;;
14316;SDS011;7242;50.858;6.586;2022-08-05T18:43:05;3.90;;;0.53;;
14316;SDS011;7242;50.858;6.586;2022-08-05T18:46:06;4.50;;;0.80;;
14316;SDS011;7242;50.858;6.586;2022-08-05T18:49:07;2.77;;;0.60;;
14316;SDS011;7242;50.858;6.586;2022-08-05T18:52:26;4.23;;;0.70;;